createdAt,value
2016-05-11T00:00:50.934Z,1007.77
2016-05-11T00:01:50.952Z,1007.78
2016-05-11T00:02:50.986Z,1007.74
2016-05-11T00:03:51.004Z,1007.77
2016-05-11T00:04:51.038Z,1007.75
2016-05-11T00:05:51.056Z,1007.71
2016-05-11T00:06:51.075Z,1007.72
2016-05-11T00:07:51.093Z,1007.72
2016-05-11T00:08:51.112Z,1007.73
2016-05-11T00:09:51.145Z,1007.7
2016-05-11T00:10:51.163Z,1007.7
2016-05-11T00:11:51.183Z,1007.65
2016-05-11T00:12:51.200Z,1007.69
2016-05-11T00:13:51.234Z,1007.65
2016-05-11T00:15:51.271Z,1007.65
2016-05-11T00:16:51.289Z,1007.62
2016-05-11T00:17:51.323Z,1007.63
2016-05-11T00:18:51.341Z,1007.59
2016-05-11T00:19:51.360Z,1007.65
2016-05-11T00:20:51.378Z,1007.62
2016-05-11T00:21:51.412Z,1007.65
2016-05-11T00:22:51.430Z,1007.65
2016-05-11T00:23:51.448Z,1007.64
2016-05-11T00:24:51.468Z,1007.67
2016-05-11T00:25:51.501Z,1007.68
2016-05-11T00:26:51.520Z,1007.65
2016-05-11T00:27:51.538Z,1007.68
2016-05-11T00:28:51.571Z,1007.68
2016-05-11T00:29:51.590Z,1007.67
2016-05-11T00:31:51.626Z,1007.67
2016-05-11T00:32:51.661Z,1007.68
2016-05-11T00:33:51.679Z,1007.64
2016-05-11T00:34:51.697Z,1007.7
2016-05-11T00:35:51.715Z,1007.64
2016-05-11T00:36:51.734Z,1007.67
2016-05-11T00:37:51.767Z,1007.65
2016-05-11T00:38:51.786Z,1007.66
2016-05-11T00:39:51.805Z,1007.64
2016-05-11T00:40:51.838Z,1007.67
2016-05-11T00:41:51.856Z,1007.7
2016-05-11T00:42:51.874Z,1007.66
2016-05-11T00:43:51.894Z,1007.67
2016-05-11T00:44:51.911Z,1007.7
2016-05-11T00:46:51.964Z,1007.7
2016-05-11T00:47:51.982Z,1007.67
2016-05-11T00:48:52.016Z,1007.67
2016-05-11T00:49:52.035Z,1007.66
2016-05-11T00:50:52.052Z,1007.66
2016-05-11T00:51:52.071Z,1007.62
2016-05-11T00:52:52.104Z,1007.61
2016-05-11T00:53:52.123Z,1007.66
2016-05-11T00:54:52.141Z,1007.65
2016-05-11T00:55:52.160Z,1007.61
2016-05-11T00:56:52.178Z,1007.6
2016-05-11T00:57:52.228Z,1007.64
2016-05-11T00:58:52.231Z,1007.58
2016-05-11T00:59:52.420Z,1007.6
2016-05-11T01:00:52.282Z,1007.6
2016-05-11T01:01:52.300Z,1007.61
2016-05-11T01:02:52.319Z,1007.63
2016-05-11T01:03:52.337Z,1007.62
2016-05-11T01:04:52.372Z,1007.6
2016-05-11T01:05:52.390Z,1007.61
2016-05-11T01:06:52.408Z,1007.62
2016-05-11T01:07:52.426Z,1007.62
2016-05-11T01:08:52.460Z,1007.61
2016-05-11T01:09:52.478Z,1007.56
2016-05-11T01:10:52.497Z,1007.6
2016-05-11T01:11:52.516Z,1007.57
2016-05-11T01:12:52.550Z,1007.53
2016-05-11T01:13:52.567Z,1007.53
2016-05-11T01:14:52.586Z,1007.55
2016-05-11T01:15:52.604Z,1007.55
2016-05-11T01:16:52.623Z,1007.51
2016-05-11T01:18:52.674Z,1007.54
2016-05-11T01:19:52.693Z,1007.52
2016-05-11T01:20:52.711Z,1007.5
2016-05-11T01:21:52.746Z,1007.51
2016-05-11T01:22:52.763Z,1007.51
2016-05-11T01:23:52.782Z,1007.54
2016-05-11T01:24:52.800Z,1007.54
2016-05-11T01:25:52.835Z,1007.54
2016-05-11T01:26:52.852Z,1007.55
2016-05-11T01:27:52.871Z,1007.53
2016-05-11T01:28:52.890Z,1007.55
2016-05-11T01:29:52.923Z,1007.58
2016-05-11T01:30:52.941Z,1007.52
2016-05-11T01:31:52.959Z,1007.58
2016-05-11T01:32:52.979Z,1007.52
2016-05-11T01:34:53.031Z,1007.58
2016-05-11T01:35:53.048Z,1007.51
2016-05-11T01:36:53.067Z,1007.55
2016-05-11T01:37:53.085Z,1007.54
2016-05-11T01:38:53.120Z,1007.58
2016-05-11T01:39:53.137Z,1007.6
2016-05-11T01:40:53.171Z,1007.61
2016-05-11T01:41:53.175Z,1007.57
2016-05-11T01:42:53.208Z,1007.55
2016-05-11T01:43:53.227Z,1007.56
2016-05-11T01:44:53.245Z,1007.54
2016-05-11T01:45:53.872Z,1007.51
2016-05-11T01:46:53.296Z,1007.54
2016-05-11T01:47:53.315Z,1007.48
2016-05-11T01:48:53.334Z,1007.48
2016-05-11T01:50:53.371Z,1007.45
2016-05-11T01:51:53.404Z,1007.46
2016-05-11T01:52:53.422Z,1007.46
2016-05-11T01:53:53.441Z,1007.49
2016-05-11T01:54:53.474Z,1007.48
2016-05-11T01:55:53.493Z,1007.48
2016-05-11T01:56:53.512Z,1007.45
2016-05-11T01:57:53.530Z,1007.47
2016-05-11T01:58:53.548Z,1007.42
2016-05-11T01:59:53.566Z,1007.48
2016-05-11T02:00:53.584Z,1007.5
2016-05-11T02:01:53.618Z,1007.46
2016-05-11T02:02:53.636Z,1007.47
2016-05-11T02:03:53.656Z,1007.47
2016-05-11T02:04:53.690Z,1007.47
2016-05-11T02:06:53.725Z,1007.49
2016-05-11T02:07:53.744Z,1007.45
2016-05-11T02:08:53.762Z,1007.47
2016-05-11T02:09:53.811Z,1007.45
2016-05-11T02:10:53.814Z,1007.5
2016-05-11T02:11:53.833Z,1007.45
2016-05-11T02:12:53.851Z,1007.48
2016-05-11T02:13:53.885Z,1007.48
2016-05-11T02:14:53.903Z,1007.47
2016-05-11T02:15:53.922Z,1007.42
2016-05-11T02:16:53.941Z,1007.46
2016-05-11T02:17:53.958Z,1007.43
2016-05-11T02:18:53.992Z,1007.46
2016-05-11T02:19:54.011Z,1007.48
2016-05-11T02:21:54.047Z,1007.46
2016-05-11T02:22:54.066Z,1007.43
2016-05-11T02:23:54.099Z,1007.47
2016-05-11T02:24:54.118Z,1007.47
2016-05-11T02:25:54.135Z,1007.44
2016-05-11T02:26:54.154Z,1007.43
2016-05-11T02:27:54.188Z,1007.43
2016-05-11T02:28:54.207Z,1007.42
2016-05-11T02:29:54.225Z,1007.44
2016-05-11T02:30:54.243Z,1007.43
2016-05-11T02:31:54.262Z,1007.41
2016-05-11T02:32:54.296Z,1007.42
2016-05-11T02:33:54.314Z,1007.4
2016-05-11T02:34:54.332Z,1007.39
2016-05-11T02:35:54.350Z,1007.34
2016-05-11T02:36:54.369Z,1007.41
2016-05-11T02:37:54.403Z,1007.41
2016-05-11T02:38:54.421Z,1007.4
2016-05-11T02:39:54.440Z,1007.39
2016-05-11T02:40:54.458Z,1007.41
2016-05-11T02:41:54.476Z,1007.38
2016-05-11T02:42:54.510Z,1007.4
2016-05-11T02:43:54.528Z,1007.4
2016-05-11T02:44:54.546Z,1007.39
2016-05-11T02:45:54.565Z,1007.39
2016-05-11T02:46:54.599Z,1007.38
2016-05-11T02:47:54.617Z,1007.4
2016-05-11T02:48:54.636Z,1007.39
2016-05-11T02:49:54.654Z,1007.36
2016-05-11T02:50:54.672Z,1007.39
2016-05-11T02:51:54.706Z,1007.39
2016-05-11T02:53:54.743Z,1007.35
2016-05-11T02:54:54.761Z,1007.33
2016-05-11T02:55:54.779Z,1007.39
2016-05-11T02:56:54.813Z,1007.36
2016-05-11T02:57:54.831Z,1007.34
2016-05-11T02:58:54.850Z,1007.33
2016-05-11T02:59:54.869Z,1007.37
2016-05-11T03:00:54.902Z,1007.35
2016-05-11T03:01:54.920Z,1007.37
2016-05-11T03:02:54.939Z,1007.37
2016-05-11T03:03:54.956Z,1007.34
2016-05-11T03:04:54.975Z,1007.39
2016-05-11T03:05:54.994Z,1007.41
2016-05-11T03:06:55.028Z,1007.37
2016-05-11T03:07:55.046Z,1007.41
2016-05-11T03:09:55.083Z,1007.39
2016-05-11T03:10:55.100Z,1007.34
2016-05-11T03:11:55.119Z,1007.34
2016-05-11T03:12:55.153Z,1007.37
2016-05-11T03:13:55.172Z,1007.38
2016-05-11T03:14:55.189Z,1007.38
2016-05-11T03:15:55.208Z,1007.42
2016-05-11T03:16:55.242Z,1007.44
2016-05-11T03:17:55.261Z,1007.45
2016-05-11T03:18:55.278Z,1007.46
2016-05-11T03:19:55.297Z,1007.49
2016-05-11T03:20:55.330Z,1007.48
2016-05-11T03:21:55.349Z,1007.47
2016-05-11T03:22:55.368Z,1007.49
2016-05-11T03:23:55.385Z,1007.49
2016-05-11T03:25:55.422Z,1007.48
2016-05-11T03:26:55.457Z,1007.45
2016-05-11T03:27:55.475Z,1007.49
2016-05-11T03:28:55.493Z,1007.51
2016-05-11T03:29:55.511Z,1007.5
2016-05-11T03:30:55.536Z,1007.54
2016-05-11T03:31:55.609Z,1007.53
2016-05-11T03:32:55.667Z,1007.53
2016-05-11T03:33:55.726Z,1007.51
2016-05-11T03:34:55.783Z,1007.48
2016-05-11T03:35:55.853Z,1007.53
2016-05-11T03:36:55.885Z,1007.53
2016-05-11T03:37:55.918Z,1007.52
2016-05-11T03:38:55.950Z,1007.53
2016-05-11T03:39:55.983Z,1007.53
2016-05-11T03:41:56.053Z,1007.55
2016-05-11T03:42:56.076Z,1007.55
2016-05-11T03:43:56.099Z,1007.52
2016-05-11T03:44:56.123Z,1007.55
2016-05-11T03:45:56.161Z,1007.52
2016-05-11T03:46:56.182Z,1007.52
2016-05-11T03:47:56.201Z,1007.51
2016-05-11T03:48:56.221Z,1007.55
2016-05-11T03:49:56.242Z,1007.51
2016-05-11T03:50:56.278Z,1007.53
2016-05-11T03:51:56.295Z,1007.57
2016-05-11T03:52:56.315Z,1007.59
2016-05-11T03:53:56.334Z,1007.59
2016-05-11T03:54:56.352Z,1007.57
2016-05-11T03:56:56.405Z,1007.62
2016-05-11T03:57:56.424Z,1007.6
2016-05-11T03:58:56.442Z,1007.63
2016-05-11T03:59:56.477Z,1007.61
2016-05-11T04:00:56.496Z,1007.61
2016-05-11T04:01:56.514Z,1007.61
2016-05-11T04:02:56.533Z,1007.6
2016-05-11T04:03:56.551Z,1007.58
2016-05-11T04:04:56.584Z,1007.62
2016-05-11T04:05:56.602Z,1007.61
2016-05-11T04:06:56.621Z,1007.58
2016-05-11T04:07:56.640Z,1007.57
2016-05-11T04:08:56.658Z,1007.55
2016-05-11T04:09:56.692Z,1007.57
2016-05-11T04:10:56.710Z,1007.58
2016-05-11T04:11:56.727Z,1007.61
2016-05-11T04:12:56.746Z,1007.66
2016-05-11T04:13:56.766Z,1007.63
2016-05-11T04:14:56.799Z,1007.66
2016-05-11T04:15:56.818Z,1007.69
2016-05-11T04:16:56.835Z,1007.68
2016-05-11T04:17:56.854Z,1007.7
2016-05-11T04:18:56.888Z,1007.68
2016-05-11T04:19:56.906Z,1007.71
2016-05-11T04:20:56.924Z,1007.71
2016-05-11T04:21:56.974Z,1007.73
2016-05-11T04:22:56.976Z,1007.71
2016-05-11T04:23:56.995Z,1007.67
2016-05-11T04:24:57.013Z,1007.73
2016-05-11T04:25:57.032Z,1007.68
2016-05-11T04:26:57.051Z,1007.68
2016-05-11T04:28:57.103Z,1007.67
2016-05-11T04:29:57.120Z,1007.69
2016-05-11T04:30:57.139Z,1007.69
2016-05-11T04:31:57.172Z,1007.74
2016-05-11T04:32:57.192Z,1007.71
2016-05-11T04:33:57.209Z,1007.76
2016-05-11T04:34:57.227Z,1007.76
2016-05-11T04:35:57.261Z,1007.8
2016-05-11T04:36:57.280Z,1007.8
2016-05-11T04:37:57.297Z,1007.82
2016-05-11T04:38:57.317Z,1007.8
2016-05-11T04:39:57.350Z,1007.78
2016-05-11T04:40:57.369Z,1007.79
2016-05-11T04:41:57.403Z,1007.8
2016-05-11T04:42:57.405Z,1007.78
2016-05-11T04:44:57.458Z,1007.82
2016-05-11T04:45:57.476Z,1007.78
2016-05-11T04:46:57.494Z,1007.81
2016-05-11T04:47:57.529Z,1007.87
2016-05-11T04:48:57.546Z,1007.89
2016-05-11T04:49:57.565Z,1007.86
2016-05-11T04:50:57.583Z,1007.87
2016-05-11T04:51:57.617Z,1007.88
2016-05-11T04:52:57.635Z,1007.9
2016-05-11T04:53:57.654Z,1007.92
2016-05-11T04:54:57.687Z,1007.93
2016-05-11T04:55:57.707Z,1007.95
2016-05-11T04:56:57.723Z,1007.94
2016-05-11T04:57:57.759Z,1007.95
2016-05-11T04:58:57.776Z,1007.93
2016-05-11T05:00:57.828Z,1007.94
2016-05-11T05:01:57.848Z,1007.98
2016-05-11T05:02:57.865Z,1007.97
2016-05-11T05:03:57.900Z,1007.96
2016-05-11T05:04:57.918Z,1007.95
2016-05-11T05:05:57.952Z,1007.94
2016-05-11T05:06:57.970Z,1007.91
2016-05-11T05:07:58.003Z,1007.91
2016-05-11T05:08:58.022Z,1007.93
2016-05-11T05:09:58.056Z,1007.91
2016-05-11T05:10:58.075Z,1007.93
2016-05-11T05:11:58.108Z,1007.91
2016-05-11T05:12:58.127Z,1007.93
2016-05-11T05:13:58.161Z,1007.97
2016-05-11T05:14:58.179Z,1008
2016-05-11T05:16:58.232Z,1007.96
2016-05-11T05:17:58.249Z,1007.96
2016-05-11T05:18:58.315Z,1007.97
2016-05-11T05:19:58.318Z,1007.99
2016-05-11T05:20:58.335Z,1007.96
2016-05-11T05:21:58.370Z,1007.98
2016-05-11T05:22:58.388Z,1008
2016-05-11T05:23:58.453Z,1007.95
2016-05-11T05:24:58.457Z,1008
2016-05-11T05:25:58.536Z,1008.02
2016-05-11T05:26:58.509Z,1008.01
2016-05-11T05:27:58.526Z,1008.04
2016-05-11T05:28:58.560Z,1008.03
2016-05-11T05:29:58.594Z,1008.01
2016-05-11T05:31:58.647Z,1008.04
2016-05-11T05:32:58.681Z,1008.05
2016-05-11T05:33:58.699Z,1008.03
2016-05-11T05:34:58.733Z,1008.06
2016-05-11T05:35:58.751Z,1008.03
2016-05-11T05:36:58.785Z,1008.09
2016-05-11T05:37:58.819Z,1008.08
2016-05-11T05:38:58.853Z,1008.08
2016-05-11T05:39:58.887Z,1008.02
2016-05-11T05:40:58.905Z,1008.04
2016-05-11T05:41:58.939Z,1008.05
2016-05-11T05:42:58.973Z,1008.1
2016-05-11T05:43:58.991Z,1008.09
2016-05-11T05:44:59.025Z,1008.09
2016-05-11T05:45:59.060Z,1008.11
2016-05-11T05:46:59.077Z,1008.07
2016-05-11T05:47:59.111Z,1008.08
2016-05-11T05:48:59.146Z,1008.11
2016-05-11T05:49:59.180Z,1008.17
2016-05-11T05:50:59.198Z,1008.18
2016-05-11T05:51:59.232Z,1008.17
2016-05-11T05:52:59.265Z,1008.2
2016-05-11T05:53:59.299Z,1008.25
2016-05-11T05:54:59.334Z,1008.23
2016-05-11T05:55:59.351Z,1008.25
2016-05-11T05:56:59.385Z,1008.23
2016-05-11T05:57:59.420Z,1008.25
2016-05-11T05:58:59.453Z,1008.26
2016-05-11T05:59:59.487Z,1008.24
2016-05-11T06:00:59.521Z,1008.24
2016-05-11T06:01:59.555Z,1008.18
2016-05-11T06:03:59.608Z,1008.19
2016-05-11T06:04:59.642Z,1008.2
2016-05-11T06:05:59.675Z,1008.24
2016-05-11T06:06:59.694Z,1008.23
2016-05-11T06:07:59.744Z,1008.24
2016-05-11T06:08:59.761Z,1008.27
2016-05-11T06:09:59.796Z,1008.22
2016-05-11T06:10:59.830Z,1008.24
2016-05-11T06:11:59.863Z,1008.23
2016-05-11T06:12:59.898Z,1008.2
2016-05-11T06:13:59.931Z,1008.18
2016-05-11T06:14:59.966Z,1008.25
2016-05-11T06:16:00.390Z,1008.26
2016-05-11T06:17:00.033Z,1008.24
2016-05-11T06:18:00.067Z,1008.25
2016-05-11T06:20:00.136Z,1008.23
2016-05-11T06:21:01.606Z,1008.25
2016-05-11T06:22:00.718Z,1008.21
2016-05-11T06:23:00.269Z,1008.23
2016-05-11T06:24:02.365Z,1008.22
2016-05-11T06:25:01.757Z,1008.2
2016-05-11T06:26:00.495Z,1008.2
2016-05-11T06:27:01.326Z,1008.19
2016-05-11T06:28:00.391Z,1008.16
2016-05-11T06:29:00.426Z,1008.17
2016-05-11T06:30:00.459Z,1008.22
2016-05-11T06:31:00.493Z,1008.26
2016-05-11T06:32:00.526Z,1008.23
2016-05-11T06:33:00.562Z,1008.24
2016-05-11T06:34:00.595Z,1008.26
2016-05-11T06:36:00.663Z,1008.14
2016-05-11T06:37:00.697Z,1008.16
2016-05-11T06:38:00.731Z,1008.15
2016-05-11T06:39:00.764Z,1008.2
2016-05-11T06:40:00.798Z,1008.19
2016-05-11T06:41:00.833Z,1008.22
2016-05-11T06:42:00.866Z,1008.23
2016-05-11T06:43:00.900Z,1008.22
2016-05-11T06:44:00.933Z,1008.26
2016-05-11T06:45:00.968Z,1008.27
2016-05-11T06:46:01.003Z,1008.22
2016-05-11T06:47:01.036Z,1008.21
2016-05-11T06:48:01.070Z,1008.21
2016-05-11T06:49:01.104Z,1008.2
2016-05-11T06:50:01.138Z,1008.27
2016-05-11T06:52:01.221Z,1008.29
2016-05-11T06:53:01.240Z,1008.27
2016-05-11T06:54:01.274Z,1008.31
2016-05-11T06:55:01.307Z,1008.28
2016-05-11T06:56:01.341Z,1008.21
2016-05-11T06:57:01.391Z,1008.24
2016-05-11T06:58:01.409Z,1008.23
2016-05-11T06:59:01.443Z,1008.28
2016-05-11T07:00:01.477Z,1008.23
2016-05-11T07:01:05.965Z,1008.17
2016-05-11T07:02:01.546Z,1008.22
2016-05-11T07:03:01.578Z,1008.19
2016-05-11T07:04:01.613Z,1008.22
2016-05-11T07:05:01.663Z,1008.24
2016-05-11T07:07:01.731Z,1008.23
2016-05-11T07:08:01.748Z,1008.26
2016-05-11T07:09:01.798Z,1008.2
2016-05-11T07:10:01.832Z,1008.19
2016-05-11T07:11:01.866Z,1008.25
2016-05-11T07:12:01.900Z,1008.26
2016-05-11T07:13:01.933Z,1008.24
2016-05-11T07:14:01.968Z,1008.24
2016-05-11T07:15:02.002Z,1008.2
2016-05-11T07:16:02.036Z,1008.27
2016-05-11T07:17:02.069Z,1008.3
2016-05-11T07:18:02.103Z,1008.29
2016-05-11T07:19:02.138Z,1008.23
2016-05-11T07:20:02.171Z,1008.22
2016-05-11T07:21:02.221Z,1008.27
2016-05-11T07:22:02.255Z,1008.26
2016-05-11T07:23:02.288Z,1008.28
2016-05-11T07:24:02.323Z,1008.31
2016-05-11T07:25:02.357Z,1008.33
2016-05-11T07:26:02.390Z,1008.37
2016-05-11T07:27:02.425Z,1008.33
2016-05-11T07:28:02.460Z,1008.3
2016-05-11T07:29:02.493Z,1008.27
2016-05-11T07:30:02.526Z,1008.27
2016-05-11T07:31:02.576Z,1008.31
2016-05-11T07:32:02.610Z,1008.25
2016-05-11T07:33:02.643Z,1008.27
2016-05-11T07:34:02.678Z,1008.28
2016-05-11T07:35:02.712Z,1008.23
2016-05-11T07:36:02.746Z,1008.23
2016-05-11T07:37:02.779Z,1008.22
2016-05-11T07:39:02.848Z,1008.26
2016-05-11T07:40:02.898Z,1008.24
2016-05-11T07:41:02.931Z,1008.22
2016-05-11T07:42:02.965Z,1008.27
2016-05-11T07:43:03.000Z,1008.22
2016-05-11T07:44:03.033Z,1008.27
2016-05-11T07:45:03.067Z,1008.27
2016-05-11T07:46:04.351Z,1008.24
2016-05-11T07:47:03.151Z,1008.21
2016-05-11T07:48:03.184Z,1008.23
2016-05-11T07:49:03.219Z,1008.22
2016-05-11T07:50:03.252Z,1008.22
2016-05-11T07:51:03.286Z,1008.24
2016-05-11T07:52:03.319Z,1008.25
2016-05-11T07:53:03.369Z,1008.24
2016-05-11T07:55:03.438Z,1008.21
2016-05-11T07:56:03.472Z,1008.24
2016-05-11T07:57:03.505Z,1008.2
2016-05-11T07:58:03.539Z,1008.22
2016-05-11T07:59:03.574Z,1008.27
2016-05-11T08:00:03.624Z,1008.22
2016-05-11T08:01:03.657Z,1008.28
2016-05-11T08:02:03.691Z,1008.25
2016-05-11T08:03:03.740Z,1008.23
2016-05-11T08:04:03.774Z,1008.21
2016-05-11T08:05:03.809Z,1008.22
2016-05-11T08:06:03.843Z,1008.23
2016-05-11T08:07:03.876Z,1008.21
2016-05-11T08:08:03.910Z,1008.25
2016-05-11T08:09:03.944Z,1008.24
2016-05-11T08:11:04.028Z,1008.22
2016-05-11T08:12:04.062Z,1008.16
2016-05-11T08:13:04.095Z,1008.17
2016-05-11T08:14:04.129Z,1008.19
2016-05-11T08:15:04.179Z,1008.14
2016-05-11T08:16:04.525Z,1008.15
2016-05-11T08:17:04.247Z,1008.15
2016-05-11T08:18:04.281Z,1008.17
2016-05-11T08:19:04.314Z,1008.17
2016-05-11T08:20:04.349Z,1008.19
2016-05-11T08:21:04.383Z,1008.24
2016-05-11T08:22:04.432Z,1008.19
2016-05-11T08:23:04.466Z,1008.15
2016-05-11T08:24:04.500Z,1008.17
2016-05-11T08:25:04.534Z,1008.18
2016-05-11T08:27:04.618Z,1008.1
2016-05-11T08:28:04.652Z,1008.11
2016-05-11T08:29:04.685Z,1008.09
2016-05-11T08:30:04.719Z,1008.1
2016-05-11T08:31:04.863Z,1008.06
2016-05-11T08:32:04.787Z,1008.1
2016-05-11T08:33:04.837Z,1008.07
2016-05-11T08:34:04.871Z,1008.07
2016-05-11T08:35:04.904Z,1008.04
2016-05-11T08:36:04.938Z,1008.07
2016-05-11T08:37:04.973Z,1008.04
2016-05-11T08:38:05.022Z,1008.03
2016-05-11T08:39:05.056Z,1008.02
2016-05-11T08:40:05.090Z,1008.02
2016-05-11T08:42:05.158Z,1008.07
2016-05-11T08:43:05.192Z,1008.03
2016-05-11T08:44:05.242Z,1008.04
2016-05-11T08:45:05.275Z,1008.02
2016-05-11T08:46:05.309Z,1007.96
2016-05-11T08:47:05.343Z,1008.04
2016-05-11T08:48:05.392Z,1008.02
2016-05-11T08:49:05.428Z,1007.98
2016-05-11T08:50:05.461Z,1007.97
2016-05-11T08:51:05.494Z,1007.96
2016-05-11T08:52:05.528Z,1007.92
2016-05-11T08:53:05.563Z,1007.92
2016-05-11T08:54:05.611Z,1007.9
2016-05-11T08:55:05.646Z,1007.83
2016-05-11T08:56:05.680Z,1007.92
2016-05-11T08:57:05.714Z,1007.9
2016-05-11T08:58:05.747Z,1007.87
2016-05-11T08:59:05.797Z,1007.89
2016-05-11T09:00:05.832Z,1007.9
2016-05-11T09:01:05.865Z,1007.96
2016-05-11T09:02:05.899Z,1007.86
2016-05-11T09:03:05.933Z,1007.87
2016-05-11T09:04:05.983Z,1007.87
2016-05-11T09:05:06.016Z,1007.81
2016-05-11T09:06:06.050Z,1007.83
2016-05-11T09:07:06.085Z,1007.8
2016-05-11T09:08:06.118Z,1007.83
2016-05-11T09:09:06.167Z,1007.82
2016-05-11T09:10:06.202Z,1007.79
2016-05-11T09:11:06.236Z,1007.77
2016-05-11T09:12:06.270Z,1007.83
2016-05-11T09:14:06.337Z,1007.84
2016-05-11T09:15:06.372Z,1007.84
2016-05-11T09:16:06.420Z,1007.84
2016-05-11T09:17:06.455Z,1007.84
2016-05-11T09:18:06.505Z,1007.79
2016-05-11T09:19:06.522Z,1007.78
2016-05-11T09:20:06.557Z,1007.73
2016-05-11T09:21:06.591Z,1007.72
2016-05-11T09:22:06.641Z,1007.64
2016-05-11T09:23:06.675Z,1007.65
2016-05-11T09:24:06.708Z,1007.61
2016-05-11T09:25:06.742Z,1007.66
2016-05-11T09:26:06.777Z,1007.61
2016-05-11T09:27:06.810Z,1007.5
2016-05-11T09:28:06.860Z,1007.63
2016-05-11T09:30:06.958Z,1007.42
2016-05-11T09:31:06.961Z,1007.54
2016-05-11T09:32:07.011Z,1007.63
2016-05-11T09:33:07.045Z,1007.56
2016-05-11T09:34:07.079Z,1007.52
2016-05-11T09:35:07.113Z,1007.46
2016-05-11T09:36:07.146Z,1007.43
2016-05-11T09:37:07.181Z,1007.44
2016-05-11T09:38:07.229Z,1007.53
2016-05-11T09:39:07.265Z,1007.53
2016-05-11T09:40:07.299Z,1007.48
2016-05-11T09:41:07.332Z,1007.43
2016-05-11T09:42:07.382Z,1007.37
2016-05-11T09:43:07.400Z,1007.49
2016-05-11T09:44:07.450Z,1007.39
2016-05-11T09:46:07.517Z,1007.37
2016-05-11T09:47:07.551Z,1007.23
2016-05-11T09:48:07.586Z,1007.36
2016-05-11T09:49:07.619Z,1007.29
2016-05-11T09:50:07.669Z,1007.37
2016-05-11T09:51:07.703Z,1007.42
2016-05-11T09:52:07.737Z,1007.42
2016-05-11T09:53:07.770Z,1007.38
2016-05-11T09:54:07.805Z,1007.39
2016-05-11T09:55:07.838Z,1007.37
2016-05-11T09:56:07.888Z,1007.38
2016-05-11T09:57:07.922Z,1007.32
2016-05-11T09:58:07.956Z,1007.37
2016-05-11T09:59:07.990Z,1007.38
2016-05-11T10:00:08.024Z,1007.43
2016-05-11T10:02:08.107Z,1007.27
2016-05-11T10:03:08.141Z,1007.23
2016-05-11T10:04:08.174Z,1007.23
2016-05-11T10:05:08.210Z,1007.21
2016-05-11T10:06:08.259Z,1007.23
2016-05-11T10:07:08.293Z,1007.25
2016-05-11T10:08:08.311Z,1007.21
2016-05-11T10:09:08.360Z,1007.3
2016-05-11T10:10:08.395Z,1007.28
2016-05-11T10:11:08.429Z,1007.28
2016-05-11T10:12:08.462Z,1007.24
2016-05-11T10:13:08.496Z,1007.28
2016-05-11T10:14:08.531Z,1007.19
2016-05-11T10:15:08.564Z,1007.16
2016-05-11T10:17:08.632Z,1007.13
2016-05-11T10:18:08.666Z,1007.14
2016-05-11T10:19:08.701Z,1007.14
2016-05-11T10:20:08.734Z,1007.16
2016-05-11T10:21:08.768Z,1007.13
2016-05-11T10:22:08.817Z,1007.18
2016-05-11T10:23:08.835Z,1007.14
2016-05-11T10:24:08.870Z,1007.13
2016-05-11T10:25:08.903Z,1007.08
2016-05-11T10:26:08.938Z,1007.06
2016-05-11T10:27:08.972Z,1006.97
2016-05-11T10:28:09.005Z,1006.97
2016-05-11T10:29:09.039Z,1007.01
2016-05-11T10:30:09.074Z,1006.87
2016-05-11T10:31:09.107Z,1006.96
2016-05-11T10:32:44.814Z,1006.96
2016-05-11T10:33:44.832Z,1007.1
2016-05-11T10:34:44.866Z,1006.93
2016-05-11T10:35:44.899Z,1006.92
2016-05-11T10:37:44.951Z,1007.01
2016-05-11T10:39:45.035Z,1007.09
2016-05-11T10:40:45.054Z,1007.03
2016-05-11T10:41:45.088Z,1007.02
2016-05-11T10:42:45.122Z,1007.09
2016-05-11T10:43:45.140Z,1007.03
2016-05-11T10:44:45.173Z,1007.01
2016-05-11T10:45:45.207Z,1007.02
2016-05-11T10:46:45.242Z,1007.13
2016-05-11T10:47:45.275Z,1007.02
2016-05-11T10:48:45.309Z,1006.99
2016-05-11T10:49:45.343Z,1007.01
2016-05-11T10:50:45.378Z,1006.89
2016-05-11T10:52:45.445Z,1007.01
2016-05-11T10:53:45.479Z,1006.97
2016-05-11T10:54:45.514Z,1007.02
2016-05-11T10:55:45.547Z,1007
2016-05-11T10:56:45.581Z,1006.87
2016-05-11T10:57:45.614Z,1006.85
2016-05-11T10:58:45.649Z,1006.79
2016-05-11T10:59:45.683Z,1006.81
2016-05-11T11:00:45.717Z,1006.81
2016-05-11T11:01:45.750Z,1006.73
2016-05-11T11:02:45.785Z,1006.75
2016-05-11T11:03:45.819Z,1006.73
2016-05-11T11:04:45.853Z,1006.69
2016-05-11T11:05:45.886Z,1006.87
2016-05-11T11:06:45.921Z,1006.82
2016-05-11T11:07:45.955Z,1006.74
2016-05-11T11:08:46.004Z,1006.97
2016-05-11T11:09:46.022Z,1006.95
2016-05-11T11:10:46.056Z,1006.6
2016-05-11T11:11:46.091Z,1006.6
2016-05-11T11:12:46.124Z,1006.57
2016-05-11T11:13:46.157Z,1006.52
2016-05-11T11:14:46.193Z,1006.53
2016-05-11T11:15:46.210Z,1006.67
2016-05-11T11:16:46.243Z,1006.75
2016-05-11T11:17:46.278Z,1007.2
2016-05-11T11:18:46.313Z,1006.62
2016-05-11T11:19:46.346Z,1006.66
2016-05-11T11:20:46.379Z,1006.62
2016-05-11T11:21:46.415Z,1006.62
2016-05-11T11:22:46.448Z,1006.65
2016-05-11T11:24:46.500Z,1006.53
2016-05-11T11:25:46.534Z,1007.14
2016-05-11T11:26:46.568Z,1007.35
2016-05-11T11:27:46.602Z,1007.34
2016-05-11T11:28:46.636Z,1007.33
2016-05-11T11:29:46.670Z,1007.35
2016-05-11T11:30:46.703Z,1007
2016-05-11T11:31:46.738Z,1007.28
2016-05-11T11:32:46.787Z,1007.16
2016-05-11T11:33:46.806Z,1007.13
2016-05-11T11:34:46.839Z,1007.16
2016-05-11T11:35:46.874Z,1006.45
2016-05-11T11:36:46.907Z,1006.31
2016-05-11T11:37:46.941Z,1006.36
2016-05-11T11:38:46.975Z,1006.38
2016-05-11T11:40:47.027Z,1007.37
2016-05-11T11:41:47.077Z,1007.4
2016-05-11T11:42:47.096Z,1007.46
2016-05-11T11:43:47.129Z,1007.48
2016-05-11T11:44:47.163Z,1007.51
2016-05-11T11:45:47.213Z,1007.54
2016-05-11T11:46:47.232Z,1007.09
2016-05-11T11:47:47.265Z,1006.24
2016-05-11T11:48:47.299Z,1006.14
2016-05-11T11:49:47.333Z,1006.44
2016-05-11T11:50:47.367Z,1006.79
2016-05-11T11:51:47.400Z,1006.17
2016-05-11T11:52:47.435Z,1007.32
2016-05-11T11:53:47.468Z,1007.34
2016-05-11T11:54:47.503Z,1007.29
2016-05-11T11:56:47.556Z,1007.08
2016-05-11T11:57:47.589Z,1006.8
2016-05-11T11:58:47.622Z,1006.71
2016-05-11T11:59:47.657Z,1006.31
2016-05-11T12:00:47.692Z,1006.15
2016-05-11T12:01:47.725Z,1006.07
2016-05-11T12:02:47.758Z,1006.11
2016-05-11T12:03:47.792Z,1006.02
2016-05-11T12:04:47.827Z,1006.02
2016-05-11T12:05:47.860Z,1005.94
2016-05-11T12:06:47.894Z,1005.91
2016-05-11T12:07:47.928Z,1005.95
2016-05-11T12:08:47.947Z,1005.97
2016-05-11T12:09:47.980Z,1005.9
2016-05-11T12:10:48.014Z,1005.98
2016-05-11T12:12:48.083Z,1005.88
2016-05-11T12:13:48.116Z,1005.84
2016-05-11T12:14:48.135Z,1005.84
2016-05-11T12:15:48.168Z,1005.88
2016-05-11T12:16:48.202Z,1005.82
2016-05-11T12:17:48.237Z,1005.93
2016-05-11T12:18:48.270Z,1005.81
2016-05-11T12:19:48.304Z,1005.93
2016-05-11T12:20:48.338Z,1005.85
2016-05-11T12:21:48.357Z,1005.82
2016-05-11T12:22:48.390Z,1005.82
2016-05-11T12:23:48.424Z,1005.81
2016-05-11T12:24:48.443Z,1005.79
2016-05-11T12:25:48.476Z,1005.77
2016-05-11T12:27:48.545Z,1005.72
2016-05-11T12:28:48.563Z,1005.67
2016-05-11T12:29:48.597Z,1005.6
2016-05-11T12:30:48.631Z,1005.63
2016-05-11T12:31:48.664Z,1005.53
2016-05-11T12:32:48.683Z,1005.54
2016-05-11T12:33:48.717Z,1005.54
2016-05-11T12:34:48.750Z,1005.51
2016-05-11T12:35:48.769Z,1005.54
2016-05-11T12:36:48.803Z,1005.45
2016-05-11T12:37:48.862Z,1005.47
2016-05-11T12:38:48.944Z,1005.45
2016-05-11T12:39:49.009Z,1005.57
2016-05-11T12:40:49.091Z,1005.64
2016-05-11T12:41:49.172Z,1005.51
2016-05-11T12:42:49.220Z,1005.58
2016-05-11T12:43:49.272Z,1005.55
2016-05-11T12:44:49.322Z,1005.53
2016-05-11T12:45:49.358Z,1005.59
2016-05-11T12:46:49.409Z,1005.53
2016-05-11T12:47:49.453Z,1005.53
2016-05-11T12:48:49.493Z,1005.52
2016-05-11T12:49:49.877Z,1005.43
2016-05-11T12:50:49.558Z,1005.52